createdAt,value
2019-03-03T00:00:00.163Z,60.13
2019-03-03T00:02:32.367Z,52.73
2019-03-03T00:05:04.145Z,67.97
2019-03-03T00:07:38.953Z,75.63
2019-03-03T00:10:10.031Z,64.17
2019-03-03T00:12:43.598Z,64.00
2019-03-03T00:15:17.473Z,53.17
2019-03-03T00:17:49.393Z,64.00
2019-03-03T00:20:21.391Z,61.67
2019-03-03T00:22:55.003Z,72.03
2019-03-03T00:25:26.838Z,65.47
2019-03-03T00:27:58.861Z,69.90
2019-03-03T00:30:30.538Z,62.87
2019-03-03T00:33:02.431Z,72.63
2019-03-03T00:35:34.139Z,66.10
2019-03-03T00:38:30.160Z,65.80
2019-03-03T00:41:20.531Z,66.27
2019-03-03T00:44:23.872Z,76.37
2019-03-03T00:47:16.699Z,68.83
2019-03-03T00:50:09.549Z,70.37
2019-03-03T00:53:02.296Z,69.90
2019-03-03T00:55:50.108Z,73.87
2019-03-03T00:58:42.768Z,72.20
2019-03-03T01:01:27.059Z,79.13
2019-03-03T01:04:14.635Z,73.07
2019-03-03T01:07:05.576Z,79.27
2019-03-03T01:09:49.839Z,77.50
2019-03-03T01:12:48.700Z,76.57
2019-03-03T01:15:30.495Z,84.23
2019-03-03T01:18:22.136Z,84.00
2019-03-03T01:21:17.940Z,70.77
2019-03-03T01:24:16.718Z,72.43
2019-03-03T01:26:49.129Z,70.80
2019-03-03T01:29:21.305Z,83.47
2019-03-03T01:31:53.986Z,75.03
2019-03-03T01:34:25.699Z,71.53
2019-03-03T01:36:58.836Z,76.40
2019-03-03T01:39:33.123Z,71.17
2019-03-03T01:42:04.962Z,75.37
2019-03-03T01:44:37.853Z,78.27
2019-03-03T01:47:11.571Z,75.33
2019-03-03T01:49:44.862Z,75.73
2019-03-03T01:52:16.653Z,75.43
2019-03-03T01:54:48.426Z,67.57
2019-03-03T01:57:20.039Z,69.07
2019-03-03T01:59:52.047Z,67.87
2019-03-03T02:02:24.978Z,67.77
2019-03-03T02:04:56.631Z,75.10
2019-03-03T02:07:28.258Z,79.57
2019-03-03T02:10:03.108Z,78.07
2019-03-03T02:12:37.422Z,73.93
2019-03-03T02:15:10.577Z,80.03
2019-03-03T02:17:45.310Z,67.10
2019-03-03T02:20:17.416Z,74.30
2019-03-03T02:22:51.227Z,82.53
2019-03-03T02:25:24.901Z,74.40
2019-03-03T02:27:57.011Z,74.70
2019-03-03T02:30:28.905Z,75.80
2019-03-03T02:33:01.305Z,73.70
2019-03-03T02:35:33.346Z,78.17
2019-03-03T02:38:06.377Z,79.83
2019-03-03T02:40:39.936Z,74.27
2019-03-03T02:43:13.557Z,79.03
2019-03-03T02:45:47.816Z,79.60
2019-03-03T02:48:19.937Z,73.20
2019-03-03T02:50:52.755Z,74.23
2019-03-03T02:53:27.315Z,70.77
2019-03-03T02:55:59.263Z,73.53
2019-03-03T02:58:32.237Z,78.73
2019-03-03T03:01:31.287Z,77.00
2019-03-03T03:04:03.642Z,75.30
2019-03-03T03:06:57.129Z,81.93
2019-03-03T03:09:57.520Z,76.03
2019-03-03T03:12:37.783Z,69.53
2019-03-03T03:15:33.217Z,72.77
2019-03-03T03:18:35.912Z,73.87
2019-03-03T03:21:17.710Z,75.43
2019-03-03T03:24:15.874Z,71.97
2019-03-03T03:27:09.033Z,74.90
2019-03-03T03:30:04.441Z,82.67
2019-03-03T03:33:00.593Z,77.60
2019-03-03T03:35:45.630Z,81.40
2019-03-03T03:38:38.800Z,78.80
2019-03-03T03:41:34.990Z,78.17
2019-03-03T03:44:23.512Z,75.50
2019-03-03T03:47:15.383Z,76.97
2019-03-03T03:49:57.081Z,76.27
2019-03-03T03:52:40.358Z,81.40
2019-03-03T03:55:31.032Z,84.33
2019-03-03T03:58:23.302Z,76.00
2019-03-03T04:01:15.809Z,76.67
2019-03-03T04:04:17.540Z,75.57
2019-03-03T04:07:10.083Z,74.70
2019-03-03T04:09:56.313Z,85.47
2019-03-03T04:12:47.309Z,83.07
2019-03-03T04:15:42.738Z,80.37
2019-03-03T04:18:35.684Z,78.70
2019-03-03T04:21:28.945Z,80.00
2019-03-03T04:24:25.175Z,84.20
2019-03-03T04:27:12.388Z,75.83
2019-03-03T04:29:52.023Z,86.47
2019-03-03T04:32:30.534Z,83.43
2019-03-03T04:35:26.172Z,83.03
2019-03-03T04:38:19.073Z,83.63
2019-03-03T04:41:10.318Z,86.37
2019-03-03T04:44:00.720Z,74.67
2019-03-03T04:46:39.328Z,80.50
2019-03-03T04:49:24.091Z,86.40
2019-03-03T04:52:23.112Z,82.53
2019-03-03T04:55:15.833Z,94.23
2019-03-03T04:58:04.082Z,79.23
2019-03-03T05:01:12.322Z,84.53
2019-03-03T05:04:07.502Z,105.73
2019-03-03T05:07:06.518Z,81.27
2019-03-03T05:09:57.330Z,80.73
2019-03-03T05:12:57.357Z,76.90
2019-03-03T05:15:49.869Z,77.60
2019-03-03T05:18:30.432Z,86.67
2019-03-03T05:21:03.384Z,84.03
2019-03-03T05:23:34.991Z,89.80
2019-03-03T05:26:06.837Z,84.13
2019-03-03T05:28:38.392Z,72.13
2019-03-03T05:31:10.119Z,85.43
2019-03-03T05:33:42.835Z,83.37
2019-03-03T05:36:14.743Z,89.77
2019-03-03T05:38:47.093Z,85.83
2019-03-03T05:41:18.739Z,86.40
2019-03-03T05:43:50.297Z,94.77
2019-03-03T05:46:24.049Z,84.80
2019-03-03T05:48:57.640Z,88.13
2019-03-03T05:51:29.626Z,84.23
2019-03-03T05:54:00.572Z,86.57
2019-03-03T05:56:32.467Z,86.23
2019-03-03T05:59:04.016Z,91.87
2019-03-03T06:01:35.675Z,84.63
2019-03-03T06:04:07.446Z,90.80
2019-03-03T06:06:39.234Z,86.50
2019-03-03T06:09:11.066Z,83.67
2019-03-03T06:11:43.473Z,83.17
2019-03-03T06:14:15.309Z,91.63
2019-03-03T06:16:48.333Z,92.40
2019-03-03T06:19:19.946Z,85.30
2019-03-03T06:21:51.917Z,86.47
2019-03-03T06:24:23.697Z,89.70
2019-03-03T06:26:55.995Z,90.57
2019-03-03T06:29:27.933Z,90.30
2019-03-03T06:31:59.802Z,93.90
2019-03-03T06:34:32.575Z,85.03
2019-03-03T06:37:04.536Z,81.63
2019-03-03T06:39:36.135Z,93.43
2019-03-03T06:42:07.946Z,84.43
2019-03-03T06:44:39.515Z,79.57
2019-03-03T06:47:11.348Z,82.27
2019-03-03T06:49:42.955Z,81.80
2019-03-03T06:52:16.057Z,85.73
2019-03-03T06:54:47.685Z,81.53
2019-03-03T06:57:19.436Z,81.17
2019-03-03T06:59:51.274Z,98.13
2019-03-03T07:02:23.073Z,85.77
2019-03-03T07:04:55.808Z,86.33
2019-03-03T07:07:27.692Z,100.13
2019-03-03T07:09:59.434Z,85.03
2019-03-03T07:12:34.008Z,81.37
2019-03-03T07:15:05.998Z,85.73
2019-03-03T07:17:37.631Z,88.80
2019-03-03T07:20:11.307Z,85.93
2019-03-03T07:22:43.530Z,86.73
2019-03-03T07:25:15.172Z,79.37
2019-03-03T07:27:47.066Z,77.23
2019-03-03T07:30:27.106Z,75.93
2019-03-03T07:33:22.289Z,68.40
2019-03-03T07:35:55.040Z,71.33
2019-03-03T07:38:26.829Z,74.13
2019-03-03T07:40:58.925Z,74.97
2019-03-03T07:43:30.554Z,76.50
2019-03-03T07:46:02.578Z,83.17
2019-03-03T07:48:34.412Z,69.87
2019-03-03T07:51:06.300Z,76.57
2019-03-03T07:53:37.924Z,79.87
2019-03-03T07:56:09.756Z,77.63
2019-03-03T07:58:41.642Z,72.13
2019-03-03T08:01:13.463Z,74.73
2019-03-03T08:03:47.551Z,74.70
2019-03-03T08:06:19.295Z,77.93
2019-03-03T08:08:51.155Z,70.20
2019-03-03T08:11:26.273Z,76.23
2019-03-03T08:13:58.278Z,78.47
2019-03-03T08:16:29.996Z,68.57
2019-03-03T08:19:01.703Z,67.47
2019-03-03T08:21:33.819Z,69.70
2019-03-03T08:24:05.706Z,66.57
2019-03-03T08:26:38.773Z,66.13
2019-03-03T08:29:10.759Z,69.90
2019-03-03T08:31:46.656Z,63.27
2019-03-03T08:34:18.688Z,67.67
2019-03-03T08:36:53.075Z,76.63
2019-03-03T08:39:25.067Z,70.03
2019-03-03T08:42:21.694Z,65.67
2019-03-03T08:45:12.541Z,69.97
2019-03-03T08:47:53.485Z,80.50
2019-03-03T08:50:49.457Z,82.07
2019-03-03T08:53:40.608Z,76.23
2019-03-03T08:56:31.072Z,69.13
2019-03-03T08:59:30.106Z,66.60
2019-03-03T09:02:28.650Z,65.57
2019-03-03T09:05:33.899Z,67.53
2019-03-03T09:08:22.420Z,70.73
2019-03-03T09:11:11.375Z,61.77
2019-03-03T09:14:07.437Z,64.20
2019-03-03T09:17:11.760Z,69.53
2019-03-03T09:20:02.424Z,63.80
2019-03-03T09:23:01.070Z,65.43
2019-03-03T09:25:54.283Z,63.83
2019-03-03T09:29:01.200Z,62.37
2019-03-03T09:31:52.894Z,66.93
2019-03-03T09:34:45.720Z,57.90
2019-03-03T09:37:33.020Z,66.43
2019-03-03T09:40:29.495Z,66.43
2019-03-03T09:43:10.042Z,52.90
2019-03-03T09:46:03.454Z,56.70
2019-03-03T09:49:05.930Z,57.47
2019-03-03T09:51:49.943Z,58.70
2019-03-03T09:54:40.434Z,59.47
2019-03-03T09:57:23.640Z,62.73
2019-03-03T10:00:12.608Z,51.07
2019-03-03T10:03:03.637Z,54.43
2019-03-03T10:06:05.914Z,59.10
2019-03-03T10:09:04.187Z,56.53
2019-03-03T10:11:49.741Z,50.87
2019-03-03T10:14:35.561Z,78.27
2019-03-03T10:17:26.334Z,49.33
2019-03-03T10:20:17.872Z,46.73
2019-03-03T10:23:19.686Z,60.23
2019-03-03T10:26:16.501Z,42.30
2019-03-03T10:29:02.839Z,48.67
2019-03-03T10:31:53.513Z,75.83
2019-03-03T10:34:35.686Z,43.33
2019-03-03T10:37:33.676Z,44.27
2019-03-03T10:40:22.019Z,50.13
2019-03-03T10:43:20.930Z,47.87
2019-03-03T10:46:12.512Z,50.97
2019-03-03T10:49:14.302Z,46.67
2019-03-03T10:51:55.560Z,46.97
2019-03-03T10:54:53.123Z,42.40
2019-03-03T10:57:42.750Z,45.83
2019-03-03T11:00:38.222Z,57.77
2019-03-03T11:03:44.287Z,50.77
2019-03-03T11:06:46.134Z,50.43
2019-03-03T11:09:33.738Z,43.00
2019-03-03T11:12:34.221Z,49.97
2019-03-03T11:15:25.906Z,51.97
2019-03-03T11:18:14.664Z,50.60
2019-03-03T11:21:24.619Z,53.83
2019-03-03T11:24:11.853Z,45.17
2019-03-03T11:27:05.024Z,48.40
2019-03-03T11:30:00.555Z,46.63
2019-03-03T11:32:46.062Z,50.23
2019-03-03T11:35:36.694Z,62.20
2019-03-03T11:38:24.098Z,48.80
2019-03-03T11:41:05.947Z,50.83
2019-03-03T11:43:52.712Z,52.23
2019-03-03T11:46:49.332Z,50.70
2019-03-03T11:49:33.211Z,42.40
2019-03-03T11:52:29.528Z,39.67
2019-03-03T11:55:24.522Z,44.73
2019-03-03T11:58:05.592Z,43.23
2019-03-03T12:00:59.070Z,42.97
2019-03-03T12:03:47.793Z,44.20
2019-03-03T12:06:35.337Z,47.30
2019-03-03T12:09:31.490Z,47.13
2019-03-03T12:12:34.798Z,36.07
2019-03-03T12:15:33.775Z,47.03
2019-03-03T12:18:22.125Z,44.70
2019-03-03T12:21:03.284Z,45.33
2019-03-03T12:23:55.042Z,38.17
2019-03-03T12:26:46.034Z,55.77
2019-03-03T12:29:31.714Z,51.43
2019-03-03T12:32:24.564Z,43.70
2019-03-03T12:35:05.418Z,52.40
2019-03-03T12:38:01.272Z,45.53
2019-03-03T12:40:50.744Z,47.60
2019-03-03T12:43:38.965Z,46.40
2019-03-03T12:46:45.154Z,45.80
2019-03-03T12:49:36.821Z,53.30
2019-03-03T12:52:32.274Z,43.67
2019-03-03T12:55:28.408Z,43.13
2019-03-03T12:58:36.100Z,45.73
2019-03-03T13:01:32.034Z,46.87
2019-03-03T13:04:24.130Z,46.23
2019-03-03T13:07:14.854Z,46.87
2019-03-03T13:10:13.858Z,45.20
2019-03-03T13:12:52.580Z,41.73
2019-03-03T13:15:54.860Z,41.07
2019-03-03T13:18:53.230Z,44.80
2019-03-03T13:21:49.260Z,45.27
2019-03-03T13:24:40.330Z,47.63
2019-03-03T13:27:38.321Z,42.67
2019-03-03T13:30:43.416Z,43.50
2019-03-03T13:33:45.046Z,44.47
2019-03-03T13:36:36.537Z,53.77
2019-03-03T13:39:34.359Z,43.83
2019-03-03T13:42:33.494Z,44.23
2019-03-03T13:45:07.195Z,43.23
2019-03-03T13:47:39.379Z,48.67
2019-03-03T13:50:13.043Z,43.40
2019-03-03T13:52:45.172Z,43.47
2019-03-03T13:55:17.382Z,40.47
2019-03-03T13:57:49.100Z,47.73
2019-03-03T14:00:21.584Z,49.13
2019-03-03T14:02:55.287Z,40.67
2019-03-03T14:05:27.157Z,42.33
2019-03-03T14:07:58.900Z,38.80
2019-03-03T14:10:31.226Z,43.67
2019-03-03T14:13:03.196Z,41.60
2019-03-03T14:15:34.960Z,41.90
2019-03-03T14:18:06.962Z,40.97
2019-03-03T14:20:38.705Z,40.73
2019-03-03T14:23:10.402Z,42.67
2019-03-03T14:25:42.227Z,44.90
2019-03-03T14:28:14.059Z,43.00
2019-03-03T14:30:45.877Z,40.23
2019-03-03T14:33:17.583Z,41.03
2019-03-03T14:35:49.613Z,40.50
2019-03-03T14:38:22.552Z,39.63
2019-03-03T14:40:54.299Z,37.47
2019-03-03T14:43:26.750Z,37.70
2019-03-03T14:45:59.712Z,36.93
2019-03-03T14:48:32.016Z,42.17
2019-03-03T14:51:03.949Z,42.67
2019-03-03T14:53:36.691Z,44.57
2019-03-03T14:56:08.804Z,40.03
2019-03-03T14:58:40.820Z,37.93
2019-03-03T15:01:17.627Z,38.27
2019-03-03T15:03:49.343Z,40.57
2019-03-03T15:06:24.403Z,40.70
2019-03-03T15:08:57.488Z,34.97
2019-03-03T15:11:29.949Z,33.93
2019-03-03T15:14:01.552Z,33.60
2019-03-03T15:16:33.698Z,39.87
2019-03-03T15:19:05.527Z,35.93
2019-03-03T15:21:39.663Z,34.17
2019-03-03T15:24:15.662Z,34.03
2019-03-03T15:26:48.061Z,34.23
2019-03-03T15:29:22.726Z,36.03
2019-03-03T15:31:54.685Z,37.37
2019-03-03T15:34:26.512Z,35.13
2019-03-03T15:36:59.707Z,34.43
2019-03-03T15:39:31.905Z,43.67
2019-03-03T15:42:03.865Z,29.90
2019-03-03T15:44:35.601Z,32.47
2019-03-03T15:47:07.784Z,39.00
2019-03-03T15:49:42.446Z,33.73
2019-03-03T15:52:16.137Z,32.27
2019-03-03T15:54:47.820Z,30.63
2019-03-03T15:57:19.486Z,33.90
2019-03-03T15:59:55.145Z,32.67
2019-03-03T16:02:27.055Z,38.90
2019-03-03T16:04:58.833Z,33.20
2019-03-03T16:07:35.667Z,35.63
2019-03-03T16:10:07.835Z,33.43
2019-03-03T16:12:39.780Z,30.53
2019-03-03T16:15:13.604Z,39.87
2019-03-03T16:17:48.458Z,29.73
2019-03-03T16:20:20.639Z,30.93
2019-03-03T16:22:52.520Z,34.33
2019-03-03T16:25:24.221Z,27.67
2019-03-03T16:27:56.489Z,29.77
2019-03-03T16:30:30.035Z,32.40
2019-03-03T16:33:01.996Z,30.17
2019-03-03T16:35:35.147Z,29.20
2019-03-03T16:38:07.002Z,23.90
2019-03-03T16:40:39.808Z,27.47
2019-03-03T16:43:12.289Z,25.83
2019-03-03T16:45:44.125Z,29.17
2019-03-03T16:48:16.205Z,25.03
2019-03-03T16:50:48.295Z,25.77
2019-03-03T16:53:19.870Z,26.43
2019-03-03T16:55:53.435Z,22.13
2019-03-03T16:58:25.376Z,24.47
2019-03-03T17:00:57.151Z,24.70
2019-03-03T17:03:28.931Z,27.00
2019-03-03T17:06:00.751Z,29.07
2019-03-03T17:08:32.510Z,25.47
2019-03-03T17:11:04.456Z,26.83
2019-03-03T17:13:36.611Z,29.73
2019-03-03T17:16:09.684Z,28.00
2019-03-03T17:18:41.291Z,31.60
2019-03-03T17:21:13.338Z,30.37
2019-03-03T17:23:45.338Z,29.93
2019-03-03T17:26:17.300Z,27.83
2019-03-03T17:28:49.000Z,29.47
2019-03-03T17:31:20.838Z,28.53
2019-03-03T17:33:56.778Z,27.57
2019-03-03T17:36:28.781Z,30.07
2019-03-03T17:39:01.062Z,30.57
2019-03-03T17:41:33.410Z,27.00
2019-03-03T17:44:05.078Z,29.07
2019-03-03T17:46:36.771Z,27.20
2019-03-03T17:49:08.983Z,36.63
2019-03-03T17:51:40.990Z,32.90
2019-03-03T17:54:13.158Z,25.27
2019-03-03T17:56:45.058Z,33.43
2019-03-03T17:59:18.819Z,32.37
2019-03-03T18:01:52.511Z,25.73
2019-03-03T18:04:24.190Z,25.40
2019-03-03T18:06:55.800Z,27.87
2019-03-03T18:09:27.530Z,23.87
2019-03-03T18:11:59.149Z,27.10
2019-03-03T18:14:31.026Z,31.03
2019-03-03T18:17:03.018Z,24.63
2019-03-03T18:19:34.746Z,24.27
2019-03-03T18:22:08.714Z,27.23
2019-03-03T18:24:53.766Z,24.60
2019-03-03T18:27:25.393Z,31.93
2019-03-03T18:29:57.672Z,25.17
2019-03-03T18:32:29.363Z,31.40
2019-03-03T18:35:01.180Z,29.40
2019-03-03T18:37:33.219Z,39.80
2019-03-03T18:40:05.584Z,36.17
2019-03-03T18:42:42.592Z,37.43
2019-03-03T18:45:15.598Z,39.07
2019-03-03T18:47:47.594Z,33.50
2019-03-03T18:50:19.443Z,40.07
2019-03-03T18:52:51.404Z,44.20
2019-03-03T18:55:23.047Z,46.00
2019-03-03T18:57:57.406Z,45.87
2019-03-03T19:00:29.637Z,33.63
2019-03-03T19:03:01.792Z,43.70
2019-03-03T19:05:35.559Z,43.60
2019-03-03T19:08:07.350Z,44.00
2019-03-03T19:10:41.945Z,39.20
2019-03-03T19:13:13.953Z,42.40
2019-03-03T19:15:45.796Z,41.07
2019-03-03T19:18:17.817Z,49.73
2019-03-03T19:20:50.555Z,38.70
2019-03-03T19:23:22.732Z,44.30
2019-03-03T19:25:54.506Z,43.77
2019-03-03T19:28:26.738Z,44.90
2019-03-03T19:30:58.679Z,41.37
2019-03-03T19:33:47.337Z,40.70
2019-03-03T19:36:19.044Z,37.57
2019-03-03T19:38:50.758Z,33.43
2019-03-03T19:41:22.374Z,49.00
2019-03-03T19:43:55.658Z,45.37
2019-03-03T19:46:28.190Z,44.10
2019-03-03T19:49:00.135Z,45.10
2019-03-03T19:51:32.090Z,34.13
2019-03-03T19:54:04.152Z,42.37
2019-03-03T19:56:36.022Z,36.13
2019-03-03T19:59:07.943Z,26.80
2019-03-03T20:01:40.196Z,37.30
2019-03-03T20:04:12.151Z,38.77
2019-03-03T20:06:44.432Z,41.33
2019-03-03T20:09:18.031Z,43.67
2019-03-03T20:11:50.044Z,35.93
2019-03-03T20:14:21.878Z,31.47
2019-03-03T20:16:56.059Z,34.33
2019-03-03T20:19:28.406Z,32.97
2019-03-03T20:22:00.434Z,26.23
2019-03-03T20:24:32.796Z,34.57
2019-03-03T20:27:04.552Z,34.87
2019-03-03T20:29:38.733Z,32.97
2019-03-03T20:32:10.803Z,17.37
2019-03-03T20:34:42.723Z,32.80
2019-03-03T20:37:14.887Z,38.67
2019-03-03T20:39:46.619Z,38.07
2019-03-03T20:42:18.666Z,36.67
2019-03-03T20:44:50.508Z,33.20
2019-03-03T20:47:22.588Z,32.13
2019-03-03T20:49:54.296Z,32.47
2019-03-03T20:52:26.023Z,31.47
2019-03-03T20:54:57.793Z,35.07
2019-03-03T20:57:29.908Z,36.93
2019-03-03T21:00:04.757Z,34.83
2019-03-03T21:02:36.784Z,27.23
2019-03-03T21:05:08.632Z,37.33
2019-03-03T21:07:50.486Z,29.73
2019-03-03T21:10:18.501Z,34.87
2019-03-03T21:12:50.244Z,36.60
2019-03-03T21:15:22.294Z,36.63
2019-03-03T21:17:54.383Z,27.53
2019-03-03T21:20:27.387Z,37.37
2019-03-03T21:22:59.132Z,41.33
2019-03-03T21:25:30.810Z,31.70
2019-03-03T21:28:03.453Z,34.67
2019-03-03T21:30:39.083Z,34.33
2019-03-03T21:33:10.872Z,37.30
2019-03-03T21:35:46.861Z,36.70
2019-03-03T21:38:18.678Z,40.00
2019-03-03T21:40:50.933Z,33.07
2019-03-03T21:43:22.851Z,35.60
2019-03-03T21:45:54.918Z,36.30
2019-03-03T21:48:26.820Z,35.03
2019-03-03T21:50:58.556Z,32.13
2019-03-03T21:53:30.356Z,35.47
2019-03-03T21:56:02.098Z,37.47
2019-03-03T21:58:34.156Z,34.63
2019-03-03T22:01:07.895Z,37.87
2019-03-03T22:03:39.648Z,34.47
2019-03-03T22:06:11.682Z,42.87
2019-03-03T22:08:43.468Z,49.80
2019-03-03T22:11:15.308Z,47.03
2019-03-03T22:13:47.122Z,42.53
2019-03-03T22:16:18.670Z,45.40
2019-03-03T22:18:50.677Z,44.37
2019-03-03T22:21:22.706Z,42.47
2019-03-03T22:23:54.778Z,36.43
2019-03-03T22:26:26.874Z,38.63
2019-03-03T22:28:58.664Z,37.30
2019-03-03T22:31:30.802Z,40.43
2019-03-03T22:34:02.761Z,38.77
2019-03-03T22:36:34.528Z,38.07
2019-03-03T22:39:07.232Z,41.67
2019-03-03T22:41:38.929Z,40.27
2019-03-03T22:44:10.711Z,31.37
2019-03-03T22:46:42.497Z,39.13
2019-03-03T22:49:14.252Z,40.43
2019-03-03T22:51:46.040Z,47.63
2019-03-03T22:54:17.718Z,40.97
2019-03-03T22:56:49.494Z,41.37
2019-03-03T22:59:21.406Z,40.90
2019-03-03T23:01:53.062Z,38.77
2019-03-03T23:05:10.754Z,44.17
2019-03-03T23:08:00.114Z,35.43
2019-03-03T23:11:12.918Z,34.30
2019-03-03T23:14:03.013Z,36.47
2019-03-03T23:17:05.788Z,38.27
2019-03-03T23:20:25.254Z,36.43
2019-03-03T23:23:13.544Z,42.57
2019-03-03T23:25:53.856Z,39.80
2019-03-03T23:28:26.244Z,41.20
2019-03-03T23:30:59.980Z,35.93
2019-03-03T23:33:31.932Z,42.60
2019-03-03T23:36:04.050Z,43.70
2019-03-03T23:38:35.932Z,50.33
2019-03-03T23:41:07.668Z,46.03
2019-03-03T23:43:39.991Z,39.37
2019-03-03T23:46:11.654Z,43.47
2019-03-03T23:48:43.743Z,42.93
2019-03-03T23:51:15.354Z,47.33
2019-03-03T23:53:47.036Z,40.47
2019-03-03T23:56:18.918Z,42.00
2019-03-03T23:58:50.706Z,44.33
